sensor_id;sensor_type;location;lat;lon;timestamp;P1;durP1;ratioP1;P2;durP2;ratioP2
7587;SDS011;3835;48.850;8.938;2022-11-24T00:01:02;12.83;;;11.73;;
7587;SDS011;3835;48.850;8.938;2022-11-24T00:03:31;11.70;;;10.70;;
7587;SDS011;3835;48.850;8.938;2022-11-24T00:06:01;12.33;;;11.33;;
7587;SDS011;3835;48.850;8.938;2022-11-24T00:08:29;12.63;;;11.70;;
7587;SDS011;3835;48.850;8.938;2022-11-24T00:11:01;12.30;;;11.37;;
7587;SDS011;3835;48.850;8.938;2022-11-24T00:13:28;12.27;;;11.10;;
7587;SDS011;3835;48.850;8.938;2022-11-24T00:16:02;14.20;;;13.10;;
7587;SDS011;3835;48.850;8.938;2022-11-24T00:18:31;12.50;;;11.20;;
7587;SDS011;3835;48.850;8.938;2022-11-24T00:20:58;11.87;;;11.07;;
7587;SDS011;3835;48.850;8.938;2022-11-24T00:23:25;11.77;;;10.90;;
7587;SDS011;3835;48.850;8.938;2022-11-24T00:25:52;11.70;;;11.00;;
7587;SDS011;3835;48.850;8.938;2022-11-24T00:28:18;12.57;;;11.57;;
7587;SDS011;3835;48.850;8.938;2022-11-24T00:30:45;11.87;;;10.83;;
7587;SDS011;3835;48.850;8.938;2022-11-24T00:33:12;11.77;;;10.80;;
7587;SDS011;3835;48.850;8.938;2022-11-24T00:35:40;11.37;;;10.57;;
7587;SDS011;3835;48.850;8.938;2022-11-24T00:38:07;15.17;;;14.00;;
7587;SDS011;3835;48.850;8.938;2022-11-24T00:40:34;12.00;;;11.00;;
7587;SDS011;3835;48.850;8.938;2022-11-24T00:43:00;13.47;;;12.77;;
7587;SDS011;3835;48.850;8.938;2022-11-24T00:45:27;12.73;;;11.97;;
7587;SDS011;3835;48.850;8.938;2022-11-24T00:47:54;14.00;;;12.90;;
7587;SDS011;3835;48.850;8.938;2022-11-24T00:50:21;13.07;;;11.97;;
7587;SDS011;3835;48.850;8.938;2022-11-24T00:52:49;15.60;;;14.13;;
7587;SDS011;3835;48.850;8.938;2022-11-24T00:55:16;14.60;;;13.40;;
7587;SDS011;3835;48.850;8.938;2022-11-24T00:57:42;13.07;;;12.23;;
7587;SDS011;3835;48.850;8.938;2022-11-24T01:00:09;12.50;;;11.47;;
7587;SDS011;3835;48.850;8.938;2022-11-24T01:02:38;13.47;;;12.47;;
7587;SDS011;3835;48.850;8.938;2022-11-24T01:05:05;14.77;;;13.27;;
7587;SDS011;3835;48.850;8.938;2022-11-24T01:07:32;13.63;;;12.67;;
7587;SDS011;3835;48.850;8.938;2022-11-24T01:10:01;13.40;;;12.50;;
7587;SDS011;3835;48.850;8.938;2022-11-24T01:12:28;12.73;;;11.93;;
7587;SDS011;3835;48.850;8.938;2022-11-24T01:14:54;14.17;;;12.67;;
7587;SDS011;3835;48.850;8.938;2022-11-24T01:17:21;13.53;;;12.37;;
7587;SDS011;3835;48.850;8.938;2022-11-24T01:19:48;13.47;;;12.47;;
7587;SDS011;3835;48.850;8.938;2022-11-24T01:22:15;12.10;;;11.17;;
7587;SDS011;3835;48.850;8.938;2022-11-24T01:24:42;12.97;;;12.20;;
7587;SDS011;3835;48.850;8.938;2022-11-24T01:27:11;12.70;;;12.00;;
7587;SDS011;3835;48.850;8.938;2022-11-24T01:29:37;13.30;;;12.27;;
7587;SDS011;3835;48.850;8.938;2022-11-24T01:32:04;11.37;;;10.60;;
7587;SDS011;3835;48.850;8.938;2022-11-24T01:34:31;13.70;;;12.33;;
7587;SDS011;3835;48.850;8.938;2022-11-24T01:36:58;13.27;;;11.90;;
7587;SDS011;3835;48.850;8.938;2022-11-24T01:39:25;12.03;;;11.47;;
7587;SDS011;3835;48.850;8.938;2022-11-24T01:41:51;13.23;;;12.10;;
7587;SDS011;3835;48.850;8.938;2022-11-24T01:44:20;13.50;;;12.43;;
7587;SDS011;3835;48.850;8.938;2022-11-24T01:46:49;13.83;;;12.63;;
7587;SDS011;3835;48.850;8.938;2022-11-24T01:49:20;12.97;;;12.20;;
7587;SDS011;3835;48.850;8.938;2022-11-24T01:51:52;11.87;;;11.17;;
7587;SDS011;3835;48.850;8.938;2022-11-24T01:54:23;12.17;;;11.27;;
7587;SDS011;3835;48.850;8.938;2022-11-24T01:56:53;12.37;;;11.23;;
7587;SDS011;3835;48.850;8.938;2022-11-24T01:59:24;13.70;;;10.97;;
7587;SDS011;3835;48.850;8.938;2022-11-24T02:01:52;12.33;;;11.37;;
7587;SDS011;3835;48.850;8.938;2022-11-24T02:04:22;12.07;;;11.13;;
7587;SDS011;3835;48.850;8.938;2022-11-24T02:06:53;12.20;;;11.50;;
7587;SDS011;3835;48.850;8.938;2022-11-24T02:09:25;12.40;;;11.47;;
7587;SDS011;3835;48.850;8.938;2022-11-24T02:11:57;12.57;;;11.67;;
7587;SDS011;3835;48.850;8.938;2022-11-24T02:14:27;11.00;;;10.43;;
7587;SDS011;3835;48.850;8.938;2022-11-24T02:16:54;12.73;;;11.87;;
7587;SDS011;3835;48.850;8.938;2022-11-24T02:19:24;11.53;;;10.63;;
7587;SDS011;3835;48.850;8.938;2022-11-24T02:21:58;12.70;;;11.77;;
7587;SDS011;3835;48.850;8.938;2022-11-24T02:24:28;11.63;;;10.93;;
7587;SDS011;3835;48.850;8.938;2022-11-24T02:27:03;11.23;;;10.57;;
7587;SDS011;3835;48.850;8.938;2022-11-24T02:29:30;12.53;;;11.63;;
7587;SDS011;3835;48.850;8.938;2022-11-24T02:31:58;11.67;;;10.70;;
7587;SDS011;3835;48.850;8.938;2022-11-24T02:34:28;11.53;;;10.73;;
7587;SDS011;3835;48.850;8.938;2022-11-24T02:36:55;11.90;;;10.93;;
7587;SDS011;3835;48.850;8.938;2022-11-24T02:39:21;12.70;;;11.73;;
7587;SDS011;3835;48.850;8.938;2022-11-24T02:41:50;12.80;;;11.90;;
7587;SDS011;3835;48.850;8.938;2022-11-24T02:44:21;13.50;;;12.63;;
7587;SDS011;3835;48.850;8.938;2022-11-24T02:47:00;12.23;;;11.40;;
7587;SDS011;3835;48.850;8.938;2022-11-24T02:49:27;14.07;;;12.33;;
7587;SDS011;3835;48.850;8.938;2022-11-24T02:51:54;12.20;;;11.40;;
7587;SDS011;3835;48.850;8.938;2022-11-24T02:54:21;11.23;;;10.43;;
7587;SDS011;3835;48.850;8.938;2022-11-24T02:56:48;12.57;;;11.87;;
7587;SDS011;3835;48.850;8.938;2022-11-24T02:59:15;12.40;;;11.77;;
7587;SDS011;3835;48.850;8.938;2022-11-24T03:01:43;11.93;;;11.17;;
7587;SDS011;3835;48.850;8.938;2022-11-24T03:04:10;10.67;;;10.07;;
7587;SDS011;3835;48.850;8.938;2022-11-24T03:06:37;12.77;;;11.53;;
7587;SDS011;3835;48.850;8.938;2022-11-24T03:09:04;12.10;;;11.07;;
7587;SDS011;3835;48.850;8.938;2022-11-24T03:11:31;13.10;;;12.07;;
7587;SDS011;3835;48.850;8.938;2022-11-24T03:13:58;11.57;;;10.93;;
7587;SDS011;3835;48.850;8.938;2022-11-24T03:16:25;11.50;;;10.80;;
7587;SDS011;3835;48.850;8.938;2022-11-24T03:18:53;11.07;;;10.47;;
7587;SDS011;3835;48.850;8.938;2022-11-24T03:21:19;10.33;;;9.83;;
7587;SDS011;3835;48.850;8.938;2022-11-24T03:23:46;11.00;;;10.20;;
7587;SDS011;3835;48.850;8.938;2022-11-24T03:26:14;12.07;;;11.37;;
7587;SDS011;3835;48.850;8.938;2022-11-24T03:28:42;10.87;;;10.17;;
7587;SDS011;3835;48.850;8.938;2022-11-24T03:31:09;11.70;;;11.10;;
7587;SDS011;3835;48.850;8.938;2022-11-24T03:33:37;12.73;;;11.93;;
7587;SDS011;3835;48.850;8.938;2022-11-24T03:36:06;11.20;;;10.67;;
7587;SDS011;3835;48.850;8.938;2022-11-24T03:38:33;10.97;;;10.27;;
7587;SDS011;3835;48.850;8.938;2022-11-24T03:41:00;12.67;;;11.90;;
7587;SDS011;3835;48.850;8.938;2022-11-24T03:43:27;11.43;;;10.80;;
7587;SDS011;3835;48.850;8.938;2022-11-24T03:45:54;11.37;;;10.80;;
7587;SDS011;3835;48.850;8.938;2022-11-24T03:48:21;11.07;;;10.23;;
7587;SDS011;3835;48.850;8.938;2022-11-24T03:50:51;10.83;;;10.23;;
7587;SDS011;3835;48.850;8.938;2022-11-24T03:53:20;10.90;;;10.20;;
7587;SDS011;3835;48.850;8.938;2022-11-24T03:55:47;12.30;;;11.20;;
7587;SDS011;3835;48.850;8.938;2022-11-24T03:58:13;12.10;;;11.13;;
7587;SDS011;3835;48.850;8.938;2022-11-24T04:00:40;12.00;;;11.40;;
7587;SDS011;3835;48.850;8.938;2022-11-24T04:03:07;10.30;;;9.80;;
7587;SDS011;3835;48.850;8.938;2022-11-24T04:05:34;11.50;;;10.77;;
7587;SDS011;3835;48.850;8.938;2022-11-24T04:08:02;10.57;;;9.80;;
7587;SDS011;3835;48.850;8.938;2022-11-24T04:10:30;10.60;;;10.03;;
7587;SDS011;3835;48.850;8.938;2022-11-24T04:12:59;11.87;;;11.17;;
7587;SDS011;3835;48.850;8.938;2022-11-24T04:15:25;11.17;;;10.47;;
7587;SDS011;3835;48.850;8.938;2022-11-24T04:17:53;10.83;;;10.23;;
7587;SDS011;3835;48.850;8.938;2022-11-24T04:20:20;12.10;;;11.50;;
7587;SDS011;3835;48.850;8.938;2022-11-24T04:22:48;11.90;;;11.17;;
7587;SDS011;3835;48.850;8.938;2022-11-24T04:25:15;10.63;;;9.90;;
7587;SDS011;3835;48.850;8.938;2022-11-24T04:27:43;11.60;;;10.83;;
7587;SDS011;3835;48.850;8.938;2022-11-24T04:30:10;12.07;;;11.57;;
7587;SDS011;3835;48.850;8.938;2022-11-24T04:32:37;12.17;;;11.37;;
7587;SDS011;3835;48.850;8.938;2022-11-24T04:35:04;12.67;;;11.67;;
7587;SDS011;3835;48.850;8.938;2022-11-24T04:37:32;12.63;;;11.60;;
7587;SDS011;3835;48.850;8.938;2022-11-24T04:40:00;11.93;;;11.33;;
7587;SDS011;3835;48.850;8.938;2022-11-24T04:42:26;11.53;;;10.87;;
7587;SDS011;3835;48.850;8.938;2022-11-24T04:44:54;12.33;;;11.27;;
7587;SDS011;3835;48.850;8.938;2022-11-24T04:47:23;11.83;;;11.20;;
7587;SDS011;3835;48.850;8.938;2022-11-24T04:49:51;11.87;;;11.00;;
7587;SDS011;3835;48.850;8.938;2022-11-24T04:52:18;12.27;;;11.30;;
7587;SDS011;3835;48.850;8.938;2022-11-24T04:54:46;12.27;;;11.67;;
7587;SDS011;3835;48.850;8.938;2022-11-24T04:57:14;11.10;;;10.40;;
7587;SDS011;3835;48.850;8.938;2022-11-24T04:59:41;11.60;;;10.77;;
7587;SDS011;3835;48.850;8.938;2022-11-24T05:02:10;11.27;;;10.77;;
7587;SDS011;3835;48.850;8.938;2022-11-24T05:04:36;10.77;;;9.90;;
7587;SDS011;3835;48.850;8.938;2022-11-24T05:07:03;9.90;;;9.30;;
7587;SDS011;3835;48.850;8.938;2022-11-24T05:09:30;11.70;;;11.00;;
7587;SDS011;3835;48.850;8.938;2022-11-24T05:11:57;9.63;;;9.10;;
7587;SDS011;3835;48.850;8.938;2022-11-24T05:14:24;10.63;;;10.00;;
7587;SDS011;3835;48.850;8.938;2022-11-24T05:16:53;11.57;;;10.87;;
7587;SDS011;3835;48.850;8.938;2022-11-24T05:19:21;12.10;;;10.97;;
7587;SDS011;3835;48.850;8.938;2022-11-24T05:21:48;11.23;;;10.33;;
7587;SDS011;3835;48.850;8.938;2022-11-24T05:24:16;10.90;;;10.30;;
7587;SDS011;3835;48.850;8.938;2022-11-24T05:26:43;12.83;;;11.87;;
7587;SDS011;3835;48.850;8.938;2022-11-24T05:29:09;12.00;;;11.20;;
7587;SDS011;3835;48.850;8.938;2022-11-24T05:31:36;11.70;;;11.00;;
7587;SDS011;3835;48.850;8.938;2022-11-24T05:34:03;11.17;;;10.30;;
7587;SDS011;3835;48.850;8.938;2022-11-24T05:36:31;11.10;;;10.33;;
7587;SDS011;3835;48.850;8.938;2022-11-24T05:39:15;11.27;;;10.20;;
7587;SDS011;3835;48.850;8.938;2022-11-24T05:41:42;11.60;;;10.87;;
7587;SDS011;3835;48.850;8.938;2022-11-24T05:44:09;11.47;;;10.70;;
7587;SDS011;3835;48.850;8.938;2022-11-24T05:46:36;12.37;;;11.33;;
7587;SDS011;3835;48.850;8.938;2022-11-24T05:49:03;10.77;;;10.07;;
7587;SDS011;3835;48.850;8.938;2022-11-24T05:51:29;10.03;;;9.53;;
7587;SDS011;3835;48.850;8.938;2022-11-24T05:53:57;10.97;;;10.10;;
7587;SDS011;3835;48.850;8.938;2022-11-24T05:56:24;12.23;;;11.63;;
7587;SDS011;3835;48.850;8.938;2022-11-24T05:58:51;12.00;;;10.97;;
7587;SDS011;3835;48.850;8.938;2022-11-24T06:01:18;12.20;;;11.40;;
7587;SDS011;3835;48.850;8.938;2022-11-24T06:03:44;11.50;;;10.63;;
7587;SDS011;3835;48.850;8.938;2022-11-24T06:06:11;11.47;;;10.97;;
7587;SDS011;3835;48.850;8.938;2022-11-24T06:08:39;12.07;;;11.40;;
7587;SDS011;3835;48.850;8.938;2022-11-24T06:11:06;10.10;;;9.50;;
7587;SDS011;3835;48.850;8.938;2022-11-24T06:13:42;11.63;;;10.67;;
7587;SDS011;3835;48.850;8.938;2022-11-24T06:16:10;11.93;;;11.07;;
7587;SDS011;3835;48.850;8.938;2022-11-24T06:18:37;11.73;;;11.10;;
7587;SDS011;3835;48.850;8.938;2022-11-24T06:21:04;15.73;;;14.33;;
7587;SDS011;3835;48.850;8.938;2022-11-24T06:23:31;13.90;;;12.87;;
7587;SDS011;3835;48.850;8.938;2022-11-24T06:26:00;13.07;;;12.13;;
7587;SDS011;3835;48.850;8.938;2022-11-24T06:28:26;11.60;;;10.67;;
7587;SDS011;3835;48.850;8.938;2022-11-24T06:30:53;12.40;;;11.37;;
7587;SDS011;3835;48.850;8.938;2022-11-24T06:33:20;12.23;;;11.63;;
7587;SDS011;3835;48.850;8.938;2022-11-24T06:35:47;12.63;;;11.67;;
7587;SDS011;3835;48.850;8.938;2022-11-24T06:38:13;11.73;;;10.90;;
7587;SDS011;3835;48.850;8.938;2022-11-24T06:40:41;12.80;;;11.83;;
7587;SDS011;3835;48.850;8.938;2022-11-24T06:43:09;11.63;;;10.67;;
7587;SDS011;3835;48.850;8.938;2022-11-24T06:45:35;11.63;;;11.13;;
7587;SDS011;3835;48.850;8.938;2022-11-24T06:48:02;11.97;;;11.47;;
7587;SDS011;3835;48.850;8.938;2022-11-24T06:50:29;11.50;;;10.60;;
7587;SDS011;3835;48.850;8.938;2022-11-24T06:52:56;12.27;;;11.37;;
7587;SDS011;3835;48.850;8.938;2022-11-24T06:55:23;11.70;;;11.00;;
7587;SDS011;3835;48.850;8.938;2022-11-24T06:57:49;11.83;;;11.03;;
7587;SDS011;3835;48.850;8.938;2022-11-24T07:00:18;12.70;;;11.47;;
7587;SDS011;3835;48.850;8.938;2022-11-24T07:02:45;11.63;;;10.70;;
7587;SDS011;3835;48.850;8.938;2022-11-24T07:05:12;13.37;;;12.20;;
7587;SDS011;3835;48.850;8.938;2022-11-24T07:07:39;12.73;;;11.90;;
7587;SDS011;3835;48.850;8.938;2022-11-24T07:10:06;11.13;;;10.27;;
7587;SDS011;3835;48.850;8.938;2022-11-24T07:12:33;11.67;;;10.90;;
7587;SDS011;3835;48.850;8.938;2022-11-24T07:15:00;12.40;;;11.50;;
7587;SDS011;3835;48.850;8.938;2022-11-24T07:17:28;13.10;;;11.67;;
7587;SDS011;3835;48.850;8.938;2022-11-24T07:19:55;12.43;;;11.73;;
7587;SDS011;3835;48.850;8.938;2022-11-24T07:22:22;13.17;;;11.93;;
7587;SDS011;3835;48.850;8.938;2022-11-24T07:24:49;12.30;;;10.83;;
7587;SDS011;3835;48.850;8.938;2022-11-24T07:27:15;10.90;;;10.27;;
7587;SDS011;3835;48.850;8.938;2022-11-24T07:29:42;11.67;;;11.07;;
7587;SDS011;3835;48.850;8.938;2022-11-24T07:32:09;10.80;;;10.40;;
7587;SDS011;3835;48.850;8.938;2022-11-24T07:34:37;11.67;;;11.13;;
7587;SDS011;3835;48.850;8.938;2022-11-24T07:37:04;11.70;;;10.90;;
7587;SDS011;3835;48.850;8.938;2022-11-24T07:39:30;10.77;;;10.17;;
7587;SDS011;3835;48.850;8.938;2022-11-24T07:41:57;12.70;;;11.83;;
7587;SDS011;3835;48.850;8.938;2022-11-24T07:44:24;10.63;;;9.87;;
7587;SDS011;3835;48.850;8.938;2022-11-24T07:46:51;11.33;;;10.63;;
7587;SDS011;3835;48.850;8.938;2022-11-24T07:49:18;12.63;;;11.47;;
7587;SDS011;3835;48.850;8.938;2022-11-24T07:51:46;11.07;;;10.63;;
7587;SDS011;3835;48.850;8.938;2022-11-24T07:54:13;10.67;;;10.23;;
7587;SDS011;3835;48.850;8.938;2022-11-24T07:56:40;10.63;;;10.13;;
7587;SDS011;3835;48.850;8.938;2022-11-24T07:59:07;9.53;;;9.13;;
7587;SDS011;3835;48.850;8.938;2022-11-24T08:01:33;9.97;;;9.43;;
7587;SDS011;3835;48.850;8.938;2022-11-24T08:04:00;10.70;;;10.20;;
7587;SDS011;3835;48.850;8.938;2022-11-24T08:06:27;10.87;;;10.47;;
7587;SDS011;3835;48.850;8.938;2022-11-24T08:08:55;10.50;;;10.10;;
7587;SDS011;3835;48.850;8.938;2022-11-24T08:11:23;10.37;;;9.87;;
7587;SDS011;3835;48.850;8.938;2022-11-24T08:13:50;11.03;;;10.63;;
7587;SDS011;3835;48.850;8.938;2022-11-24T08:16:17;11.13;;;10.73;;
7587;SDS011;3835;48.850;8.938;2022-11-24T08:18:47;10.43;;;10.03;;
7587;SDS011;3835;48.850;8.938;2022-11-24T08:21:15;11.87;;;11.37;;
7587;SDS011;3835;48.850;8.938;2022-11-24T08:23:42;10.10;;;9.70;;
7587;SDS011;3835;48.850;8.938;2022-11-24T08:26:11;10.97;;;10.57;;
7587;SDS011;3835;48.850;8.938;2022-11-24T08:28:41;10.40;;;10.00;;
7587;SDS011;3835;48.850;8.938;2022-11-24T08:31:09;10.70;;;10.30;;
7587;SDS011;3835;48.850;8.938;2022-11-24T08:33:37;11.90;;;11.40;;
7587;SDS011;3835;48.850;8.938;2022-11-24T08:36:04;9.77;;;9.37;;
7587;SDS011;3835;48.850;8.938;2022-11-24T08:38:33;12.03;;;11.53;;
7587;SDS011;3835;48.850;8.938;2022-11-24T08:41:00;10.00;;;9.60;;
7587;SDS011;3835;48.850;8.938;2022-11-24T08:43:28;10.10;;;9.70;;
7587;SDS011;3835;48.850;8.938;2022-11-24T08:45:57;10.33;;;9.93;;
7587;SDS011;3835;48.850;8.938;2022-11-24T08:48:25;10.43;;;10.03;;
7587;SDS011;3835;48.850;8.938;2022-11-24T08:50:52;11.17;;;10.77;;
7587;SDS011;3835;48.850;8.938;2022-11-24T08:53:18;11.63;;;11.13;;
7587;SDS011;3835;48.850;8.938;2022-11-24T08:55:45;11.77;;;11.37;;
7587;SDS011;3835;48.850;8.938;2022-11-24T08:58:12;11.90;;;11.40;;
7587;SDS011;3835;48.850;8.938;2022-11-24T09:00:40;10.80;;;10.30;;
7587;SDS011;3835;48.850;8.938;2022-11-24T09:03:08;11.77;;;11.27;;
7587;SDS011;3835;48.850;8.938;2022-11-24T09:05:36;11.53;;;11.03;;
7587;SDS011;3835;48.850;8.938;2022-11-24T09:08:03;11.33;;;10.83;;
7587;SDS011;3835;48.850;8.938;2022-11-24T09:10:30;11.43;;;10.87;;
7587;SDS011;3835;48.850;8.938;2022-11-24T09:12:57;12.03;;;11.53;;
7587;SDS011;3835;48.850;8.938;2022-11-24T09:15:24;13.03;;;12.43;;
7587;SDS011;3835;48.850;8.938;2022-11-24T09:17:52;11.43;;;10.97;;
7587;SDS011;3835;48.850;8.938;2022-11-24T09:20:19;11.93;;;11.43;;
7587;SDS011;3835;48.850;8.938;2022-11-24T09:22:45;11.63;;;11.23;;
7587;SDS011;3835;48.850;8.938;2022-11-24T09:25:12;11.60;;;11.20;;
7587;SDS011;3835;48.850;8.938;2022-11-24T09:27:39;10.70;;;10.30;;
7587;SDS011;3835;48.850;8.938;2022-11-24T09:30:06;11.37;;;10.97;;
7587;SDS011;3835;48.850;8.938;2022-11-24T09:32:34;11.47;;;10.97;;
7587;SDS011;3835;48.850;8.938;2022-11-24T09:35:03;10.97;;;10.57;;
7587;SDS011;3835;48.850;8.938;2022-11-24T09:37:31;10.50;;;10.10;;
7587;SDS011;3835;48.850;8.938;2022-11-24T09:39:58;10.80;;;10.40;;
7587;SDS011;3835;48.850;8.938;2022-11-24T09:42:28;10.93;;;10.53;;
7587;SDS011;3835;48.850;8.938;2022-11-24T09:47:53;12.67;;;12.17;;
7587;SDS011;3835;48.850;8.938;2022-11-24T09:50:25;12.87;;;12.37;;
7587;SDS011;3835;48.850;8.938;2022-11-24T09:52:56;13.73;;;12.93;;
7587;SDS011;3835;48.850;8.938;2022-11-24T09:55:30;12.93;;;12.23;;
7587;SDS011;3835;48.850;8.938;2022-11-24T09:58:05;12.27;;;11.77;;
7587;SDS011;3835;48.850;8.938;2022-11-24T10:00:37;10.93;;;10.53;;
7587;SDS011;3835;48.850;8.938;2022-11-24T10:03:04;11.77;;;11.20;;
7587;SDS011;3835;48.850;8.938;2022-11-24T10:05:35;12.00;;;11.40;;
7587;SDS011;3835;48.850;8.938;2022-11-24T10:08:06;13.17;;;12.67;;
7587;SDS011;3835;48.850;8.938;2022-11-24T10:10:47;11.23;;;10.77;;
7587;SDS011;3835;48.850;8.938;2022-11-24T10:13:28;13.93;;;13.03;;
7587;SDS011;3835;48.850;8.938;2022-11-24T10:16:05;12.77;;;12.27;;
7587;SDS011;3835;48.850;8.938;2022-11-24T10:18:41;12.20;;;11.70;;
7587;SDS011;3835;48.850;8.938;2022-11-24T10:21:33;10.83;;;10.40;;
7587;SDS011;3835;48.850;8.938;2022-11-24T10:24:17;10.77;;;10.37;;
7587;SDS011;3835;48.850;8.938;2022-11-24T10:27:09;11.10;;;10.70;;
7587;SDS011;3835;48.850;8.938;2022-11-24T10:29:42;10.93;;;10.50;;
7587;SDS011;3835;48.850;8.938;2022-11-24T10:32:12;12.77;;;12.10;;
7587;SDS011;3835;48.850;8.938;2022-11-24T10:34:43;10.97;;;10.57;;
7587;SDS011;3835;48.850;8.938;2022-11-24T10:37:13;10.57;;;10.17;;
7587;SDS011;3835;48.850;8.938;2022-11-24T10:39:48;11.33;;;10.83;;
7587;SDS011;3835;48.850;8.938;2022-11-24T10:42:22;12.83;;;12.33;;
7587;SDS011;3835;48.850;8.938;2022-11-24T10:44:59;11.97;;;11.47;;
7587;SDS011;3835;48.850;8.938;2022-11-24T10:47:26;12.40;;;11.90;;
7587;SDS011;3835;48.850;8.938;2022-11-24T10:49:55;12.43;;;11.77;;
7587;SDS011;3835;48.850;8.938;2022-11-24T10:52:28;12.83;;;12.30;;
7587;SDS011;3835;48.850;8.938;2022-11-24T10:55:02;12.07;;;11.57;;
7587;SDS011;3835;48.850;8.938;2022-11-24T10:57:31;12.77;;;12.17;;
7587;SDS011;3835;48.850;8.938;2022-11-24T10:59:59;11.53;;;11.03;;
7587;SDS011;3835;48.850;8.938;2022-11-24T11:02:31;10.33;;;9.93;;
7587;SDS011;3835;48.850;8.938;2022-11-24T11:07:52;12.20;;;11.27;;
7587;SDS011;3835;48.850;8.938;2022-11-24T11:10:45;10.60;;;10.00;;
7587;SDS011;3835;48.850;8.938;2022-11-24T11:13:23;10.83;;;10.33;;
7587;SDS011;3835;48.850;8.938;2022-11-24T11:15:52;11.67;;;10.97;;
7587;SDS011;3835;48.850;8.938;2022-11-24T11:18:19;11.50;;;11.00;;
7587;SDS011;3835;48.850;8.938;2022-11-24T11:20:50;12.97;;;11.83;;
7587;SDS011;3835;48.850;8.938;2022-11-24T11:23:21;12.50;;;11.33;;
7587;SDS011;3835;48.850;8.938;2022-11-24T11:25:53;12.23;;;11.33;;
7587;SDS011;3835;48.850;8.938;2022-11-24T11:28:55;11.67;;;11.00;;
7587;SDS011;3835;48.850;8.938;2022-11-24T11:31:24;11.20;;;10.53;;
7587;SDS011;3835;48.850;8.938;2022-11-24T11:33:55;12.07;;;11.43;;
7587;SDS011;3835;48.850;8.938;2022-11-24T11:36:24;12.50;;;11.90;;
7587;SDS011;3835;48.850;8.938;2022-11-24T11:38:53;10.70;;;10.17;;
7587;SDS011;3835;48.850;8.938;2022-11-24T11:41:20;10.90;;;10.30;;
7587;SDS011;3835;48.850;8.938;2022-11-24T11:43:55;11.93;;;10.93;;
7587;SDS011;3835;48.850;8.938;2022-11-24T11:46:30;10.70;;;10.10;;
7587;SDS011;3835;48.850;8.938;2022-11-24T11:48:58;11.57;;;10.97;;
7587;SDS011;3835;48.850;8.938;2022-11-24T11:51:29;12.03;;;11.20;;
7587;SDS011;3835;48.850;8.938;2022-11-24T11:54:09;11.03;;;10.33;;
7587;SDS011;3835;48.850;8.938;2022-11-24T11:56:43;12.47;;;11.47;;
7587;SDS011;3835;48.850;8.938;2022-11-24T11:59:17;11.73;;;10.97;;
7587;SDS011;3835;48.850;8.938;2022-11-24T12:02:17;11.60;;;10.70;;
7587;SDS011;3835;48.850;8.938;2022-11-24T12:05:03;12.40;;;11.40;;
7587;SDS011;3835;48.850;8.938;2022-11-24T12:07:42;12.30;;;11.57;;
7587;SDS011;3835;48.850;8.938;2022-11-24T12:10:22;11.53;;;10.87;;
7587;SDS011;3835;48.850;8.938;2022-11-24T12:13:00;11.90;;;11.30;;
7587;SDS011;3835;48.850;8.938;2022-11-24T12:15:45;11.80;;;11.20;;
7587;SDS011;3835;48.850;8.938;2022-11-24T12:18:19;12.97;;;12.10;;
7587;SDS011;3835;48.850;8.938;2022-11-24T12:20:56;10.83;;;10.23;;
7587;SDS011;3835;48.850;8.938;2022-11-24T12:23:34;11.63;;;10.97;;
7587;SDS011;3835;48.850;8.938;2022-11-24T12:26:12;17.00;;;15.80;;
7587;SDS011;3835;48.850;8.938;2022-11-24T12:28:50;11.77;;;11.07;;
7587;SDS011;3835;48.850;8.938;2022-11-24T12:31:29;12.13;;;11.53;;
7587;SDS011;3835;48.850;8.938;2022-11-24T12:34:09;12.23;;;11.30;;
7587;SDS011;3835;48.850;8.938;2022-11-24T12:36:51;12.57;;;11.77;;
7587;SDS011;3835;48.850;8.938;2022-11-24T12:39:33;13.13;;;11.97;;
7587;SDS011;3835;48.850;8.938;2022-11-24T12:42:07;12.20;;;11.30;;
7587;SDS011;3835;48.850;8.938;2022-11-24T12:44:39;11.53;;;10.80;;
7587;SDS011;3835;48.850;8.938;2022-11-24T12:47:23;11.67;;;11.00;;
7587;SDS011;3835;48.850;8.938;2022-11-24T12:50:01;12.60;;;11.80;;
7587;SDS011;3835;48.850;8.938;2022-11-24T12:52:34;11.97;;;11.33;;
7587;SDS011;3835;48.850;8.938;2022-11-24T12:55:07;11.23;;;10.73;;
7587;SDS011;3835;48.850;8.938;2022-11-24T12:57:43;12.57;;;11.77;;
7587;SDS011;3835;48.850;8.938;2022-11-24T13:00:17;12.50;;;11.80;;
7587;SDS011;3835;48.850;8.938;2022-11-24T13:02:52;12.30;;;11.60;;
7587;SDS011;3835;48.850;8.938;2022-11-24T13:05:30;11.93;;;11.23;;
7587;SDS011;3835;48.850;8.938;2022-11-24T13:08:04;12.23;;;11.57;;
7587;SDS011;3835;48.850;8.938;2022-11-24T13:10:32;12.80;;;11.97;;
7587;SDS011;3835;48.850;8.938;2022-11-24T13:13:02;11.87;;;11.17;;
7587;SDS011;3835;48.850;8.938;2022-11-24T13:15:30;13.20;;;12.60;;
7587;SDS011;3835;48.850;8.938;2022-11-24T13:17:58;11.77;;;11.17;;
7587;SDS011;3835;48.850;8.938;2022-11-24T13:20:29;12.20;;;11.47;;
7587;SDS011;3835;48.850;8.938;2022-11-24T13:22:59;12.87;;;12.33;;
7587;SDS011;3835;48.850;8.938;2022-11-24T13:25:27;12.70;;;11.90;;
7587;SDS011;3835;48.850;8.938;2022-11-24T13:27:55;13.37;;;12.17;;
7587;SDS011;3835;48.850;8.938;2022-11-24T13:33:37;13.97;;;12.70;;
7587;SDS011;3835;48.850;8.938;2022-11-24T13:38:57;12.33;;;11.63;;
7587;SDS011;3835;48.850;8.938;2022-11-24T13:44:30;14.10;;;13.40;;
7587;SDS011;3835;48.850;8.938;2022-11-24T13:47:30;12.67;;;11.93;;
7587;SDS011;3835;48.850;8.938;2022-11-24T13:49:59;12.73;;;11.97;;
7587;SDS011;3835;48.850;8.938;2022-11-24T13:52:37;13.50;;;12.87;;
7587;SDS011;3835;48.850;8.938;2022-11-24T13:55:17;13.70;;;12.80;;
7587;SDS011;3835;48.850;8.938;2022-11-24T13:57:47;14.03;;;13.20;;
7587;SDS011;3835;48.850;8.938;2022-11-24T14:00:17;13.07;;;12.37;;
7587;SDS011;3835;48.850;8.938;2022-11-24T14:02:47;13.23;;;12.63;;
7587;SDS011;3835;48.850;8.938;2022-11-24T14:05:16;12.33;;;11.67;;
7587;SDS011;3835;48.850;8.938;2022-11-24T14:07:44;13.30;;;12.53;;
7587;SDS011;3835;48.850;8.938;2022-11-24T14:10:14;12.50;;;11.70;;
7587;SDS011;3835;48.850;8.938;2022-11-24T14:12:45;12.70;;;11.90;;
7587;SDS011;3835;48.850;8.938;2022-11-24T14:15:18;13.37;;;12.73;;
7587;SDS011;3835;48.850;8.938;2022-11-24T14:17:49;12.20;;;11.60;;
7587;SDS011;3835;48.850;8.938;2022-11-24T14:20:21;12.23;;;11.57;;
7587;SDS011;3835;48.850;8.938;2022-11-24T14:22:49;12.17;;;11.07;;
7587;SDS011;3835;48.850;8.938;2022-11-24T14:25:19;12.53;;;11.83;;
7587;SDS011;3835;48.850;8.938;2022-11-24T14:27:49;14.80;;;13.60;;
7587;SDS011;3835;48.850;8.938;2022-11-24T14:30:17;16.60;;;15.07;;
7587;SDS011;3835;48.850;8.938;2022-11-24T14:32:53;19.30;;;17.20;;
7587;SDS011;3835;48.850;8.938;2022-11-24T14:35:25;23.17;;;19.10;;
7587;SDS011;3835;48.850;8.938;2022-11-24T14:37:52;15.67;;;14.60;;
7587;SDS011;3835;48.850;8.938;2022-11-24T14:40:36;15.47;;;14.07;;
7587;SDS011;3835;48.850;8.938;2022-11-24T14:43:14;14.27;;;13.17;;
7587;SDS011;3835;48.850;8.938;2022-11-24T14:45:50;13.67;;;12.60;;
7587;SDS011;3835;48.850;8.938;2022-11-24T14:48:22;15.67;;;14.30;;
7587;SDS011;3835;48.850;8.938;2022-11-24T14:50:51;24.57;;;17.30;;
7587;SDS011;3835;48.850;8.938;2022-11-24T14:53:20;18.30;;;16.57;;
7587;SDS011;3835;48.850;8.938;2022-11-24T14:58:35;12.50;;;11.70;;
7587;SDS011;3835;48.850;8.938;2022-11-24T15:01:09;15.07;;;13.90;;
7587;SDS011;3835;48.850;8.938;2022-11-24T15:03:44;14.80;;;13.70;;
7587;SDS011;3835;48.850;8.938;2022-11-24T15:06:14;16.70;;;15.27;;
7587;SDS011;3835;48.850;8.938;2022-11-24T15:08:43;13.47;;;12.27;;
7587;SDS011;3835;48.850;8.938;2022-11-24T15:11:13;15.27;;;13.97;;
7587;SDS011;3835;48.850;8.938;2022-11-24T15:13:48;13.97;;;12.80;;
7587;SDS011;3835;48.850;8.938;2022-11-24T15:16:18;12.03;;;11.27;;
7587;SDS011;3835;48.850;8.938;2022-11-24T15:18:53;11.40;;;10.50;;
7587;SDS011;3835;48.850;8.938;2022-11-24T15:21:30;11.47;;;10.90;;